Terminal Aerodrome Forecast
Issued by NWS Springfield, MO

Home | Current Version | Previous Version | Text Only | Print | Product List | Glossary On
Versions: 1 2 3 4 5 6 7 8 9 10 11 12 13 14 15 16 17 18 19 20 21 22 23 24
000
FTUS43 KSGF 270000 AAA
TAFSGF
TAF AMD
KSGF 270056Z 2701/2724 16012KT P6SM OVC009 WS020/20045KT
      TEMPO 2701/2703 3SM -DZ
     FM270300 18011KT 3SM -DZRA BR OVC007 WS020/22040KT
     FM270900 29011KT 4SM -DZRA BR OVC007
     FM271300 33011KT 5SM -DZRA SCT007 OVC012
     FM271600 33010KT P6SM BKN015 OVC060
     FM272000 33009KT P6SM SCT020 OVC080=

USA.gov is the U.S. government's official web portal to all federal, state and local government web resources and services.